sensor_id;sensor_type;location;lat;lon;timestamp;P1;durP1;ratioP1;P2;durP2;ratioP2
76063;SDS011;64762;52.006;8.424;2023-05-20T00:00:39;5.18;;;1.70;;
76063;SDS011;64762;52.006;8.424;2023-05-20T00:03:08;4.90;;;1.88;;
76063;SDS011;64762;52.006;8.424;2023-05-20T00:05:39;5.50;;;2.05;;
76063;SDS011;64762;52.006;8.424;2023-05-20T00:08:05;5.53;;;2.15;;
76063;SDS011;64762;52.006;8.424;2023-05-20T00:10:35;5.55;;;1.92;;
76063;SDS011;64762;52.006;8.424;2023-05-20T00:13:01;5.25;;;1.90;;
76063;SDS011;64762;52.006;8.424;2023-05-20T00:15:27;8.82;;;1.90;;
76063;SDS011;64762;52.006;8.424;2023-05-20T00:17:53;4.00;;;1.90;;
76063;SDS011;64762;52.006;8.424;2023-05-20T00:20:22;7.70;;;2.47;;
76063;SDS011;64762;52.006;8.424;2023-05-20T00:22:47;6.20;;;2.28;;
76063;SDS011;64762;52.006;8.424;2023-05-20T00:25:13;4.05;;;1.80;;
76063;SDS011;64762;52.006;8.424;2023-05-20T00:27:42;8.77;;;2.55;;
76063;SDS011;64762;52.006;8.424;2023-05-20T00:30:08;4.43;;;1.85;;
76063;SDS011;64762;52.006;8.424;2023-05-20T00:32:34;9.63;;;2.17;;
76063;SDS011;64762;52.006;8.424;2023-05-20T00:35:00;4.57;;;2.30;;
76063;SDS011;64762;52.006;8.424;2023-05-20T00:37:32;4.90;;;2.10;;
76063;SDS011;64762;52.006;8.424;2023-05-20T00:39:58;4.95;;;2.03;;
76063;SDS011;64762;52.006;8.424;2023-05-20T00:42:29;4.28;;;2.10;;
76063;SDS011;64762;52.006;8.424;2023-05-20T00:44:54;4.90;;;2.35;;
76063;SDS011;64762;52.006;8.424;2023-05-20T00:47:32;7.10;;;2.25;;
76063;SDS011;64762;52.006;8.424;2023-05-20T00:49:58;4.68;;;1.75;;
76063;SDS011;64762;52.006;8.424;2023-05-20T00:52:24;4.57;;;1.88;;
76063;SDS011;64762;52.006;8.424;2023-05-20T00:54:51;4.80;;;2.00;;
76063;SDS011;64762;52.006;8.424;2023-05-20T00:57:24;5.38;;;1.98;;
76063;SDS011;64762;52.006;8.424;2023-05-20T00:59:53;4.90;;;1.75;;
76063;SDS011;64762;52.006;8.424;2023-05-20T01:02:19;5.18;;;2.03;;
76063;SDS011;64762;52.006;8.424;2023-05-20T01:04:49;5.82;;;2.25;;
76063;SDS011;64762;52.006;8.424;2023-05-20T01:07:15;5.15;;;2.10;;
76063;SDS011;64762;52.006;8.424;2023-05-20T01:09:41;6.18;;;2.20;;
76063;SDS011;64762;52.006;8.424;2023-05-20T01:12:15;5.38;;;2.22;;
76063;SDS011;64762;52.006;8.424;2023-05-20T01:14:49;7.03;;;1.98;;
76063;SDS011;64762;52.006;8.424;2023-05-20T01:17:20;5.43;;;1.98;;
76063;SDS011;64762;52.006;8.424;2023-05-20T01:19:50;4.88;;;2.00;;
76063;SDS011;64762;52.006;8.424;2023-05-20T01:22:17;4.47;;;1.98;;
76063;SDS011;64762;52.006;8.424;2023-05-20T01:24:43;6.53;;;2.13;;
76063;SDS011;64762;52.006;8.424;2023-05-20T01:27:12;4.60;;;1.90;;
76063;SDS011;64762;52.006;8.424;2023-05-20T01:29:38;5.75;;;2.30;;
76063;SDS011;64762;52.006;8.424;2023-05-20T01:32:05;6.97;;;2.05;;
76063;SDS011;64762;52.006;8.424;2023-05-20T01:34:32;9.77;;;2.60;;
76063;SDS011;64762;52.006;8.424;2023-05-20T01:36:58;4.72;;;1.85;;
76063;SDS011;64762;52.006;8.424;2023-05-20T01:39:23;5.15;;;2.08;;
76063;SDS011;64762;52.006;8.424;2023-05-20T01:41:50;4.10;;;1.85;;
76063;SDS011;64762;52.006;8.424;2023-05-20T01:44:15;5.18;;;2.17;;
76063;SDS011;64762;52.006;8.424;2023-05-20T01:46:41;7.07;;;2.33;;
76063;SDS011;64762;52.006;8.424;2023-05-20T01:49:06;7.10;;;2.10;;
76063;SDS011;64762;52.006;8.424;2023-05-20T01:51:31;4.70;;;2.13;;
76063;SDS011;64762;52.006;8.424;2023-05-20T01:53:59;5.15;;;2.22;;
76063;SDS011;64762;52.006;8.424;2023-05-20T01:56:24;5.03;;;2.23;;
76063;SDS011;64762;52.006;8.424;2023-05-20T01:58:49;3.97;;;2.10;;
76063;SDS011;64762;52.006;8.424;2023-05-20T02:01:15;6.10;;;2.10;;
76063;SDS011;64762;52.006;8.424;2023-05-20T02:03:40;4.53;;;2.00;;
76063;SDS011;64762;52.006;8.424;2023-05-20T02:06:05;5.07;;;2.30;;
76063;SDS011;64762;52.006;8.424;2023-05-20T02:08:30;8.30;;;2.90;;
76063;SDS011;64762;52.006;8.424;2023-05-20T02:10:56;8.50;;;2.53;;
76063;SDS011;64762;52.006;8.424;2023-05-20T02:13:21;4.47;;;2.07;;
76063;SDS011;64762;52.006;8.424;2023-05-20T02:15:46;6.03;;;2.30;;
76063;SDS011;64762;52.006;8.424;2023-05-20T02:18:12;7.83;;;2.67;;
76063;SDS011;64762;52.006;8.424;2023-05-20T02:20:37;6.78;;;2.40;;
76063;SDS011;64762;52.006;8.424;2023-05-20T02:23:03;6.73;;;2.47;;
76063;SDS011;64762;52.006;8.424;2023-05-20T02:25:30;5.22;;;2.13;;
76063;SDS011;64762;52.006;8.424;2023-05-20T02:27:55;8.07;;;2.90;;
76063;SDS011;64762;52.006;8.424;2023-05-20T02:30:21;4.80;;;2.20;;
76063;SDS011;64762;52.006;8.424;2023-05-20T02:32:46;5.70;;;2.70;;
76063;SDS011;64762;52.006;8.424;2023-05-20T02:35:11;5.72;;;2.45;;
76063;SDS011;64762;52.006;8.424;2023-05-20T02:37:37;6.27;;;2.30;;
76063;SDS011;64762;52.006;8.424;2023-05-20T02:40:03;6.60;;;2.22;;
76063;SDS011;64762;52.006;8.424;2023-05-20T02:42:29;6.43;;;2.60;;
76063;SDS011;64762;52.006;8.424;2023-05-20T02:44:54;5.23;;;2.60;;
76063;SDS011;64762;52.006;8.424;2023-05-20T02:47:22;5.07;;;2.20;;
76063;SDS011;64762;52.006;8.424;2023-05-20T02:49:47;5.32;;;2.20;;
76063;SDS011;64762;52.006;8.424;2023-05-20T02:52:13;4.53;;;2.20;;
76063;SDS011;64762;52.006;8.424;2023-05-20T02:54:40;5.97;;;2.60;;
76063;SDS011;64762;52.006;8.424;2023-05-20T02:57:05;5.80;;;2.33;;
76063;SDS011;64762;52.006;8.424;2023-05-20T02:59:30;5.13;;;2.17;;
76063;SDS011;64762;52.006;8.424;2023-05-20T03:01:55;7.27;;;2.87;;
76063;SDS011;64762;52.006;8.424;2023-05-20T03:04:21;5.57;;;2.10;;
76063;SDS011;64762;52.006;8.424;2023-05-20T03:06:46;7.53;;;2.43;;
76063;SDS011;64762;52.006;8.424;2023-05-20T03:09:11;7.37;;;2.23;;
76063;SDS011;64762;52.006;8.424;2023-05-20T03:11:38;5.93;;;2.47;;
76063;SDS011;64762;52.006;8.424;2023-05-20T03:14:03;6.03;;;2.27;;
76063;SDS011;64762;52.006;8.424;2023-05-20T03:16:28;9.13;;;2.67;;
76063;SDS011;64762;52.006;8.424;2023-05-20T03:18:53;7.70;;;2.50;;
76063;SDS011;64762;52.006;8.424;2023-05-20T03:21:19;6.87;;;2.30;;
76063;SDS011;64762;52.006;8.424;2023-05-20T03:23:47;6.80;;;2.60;;
76063;SDS011;64762;52.006;8.424;2023-05-20T03:26:13;7.93;;;2.60;;
76063;SDS011;64762;52.006;8.424;2023-05-20T03:28:38;4.37;;;2.30;;
76063;SDS011;64762;52.006;8.424;2023-05-20T03:31:03;7.37;;;2.60;;
76063;SDS011;64762;52.006;8.424;2023-05-20T03:33:28;6.47;;;2.70;;
76063;SDS011;64762;52.006;8.424;2023-05-20T03:35:55;6.00;;;2.70;;
76063;SDS011;64762;52.006;8.424;2023-05-20T03:38:20;7.90;;;2.90;;
76063;SDS011;64762;52.006;8.424;2023-05-20T03:40:45;4.67;;;2.73;;
76063;SDS011;64762;52.006;8.424;2023-05-20T03:43:11;7.47;;;2.33;;
76063;SDS011;64762;52.006;8.424;2023-05-20T03:45:36;6.70;;;2.30;;
76063;SDS011;64762;52.006;8.424;2023-05-20T03:48:01;7.43;;;2.90;;
76063;SDS011;64762;52.006;8.424;2023-05-20T03:50:27;5.50;;;2.70;;
76063;SDS011;64762;52.006;8.424;2023-05-20T03:52:52;6.80;;;2.53;;
76063;SDS011;64762;52.006;8.424;2023-05-20T03:55:18;7.13;;;2.70;;
76063;SDS011;64762;52.006;8.424;2023-05-20T03:57:44;6.00;;;2.50;;
76063;SDS011;64762;52.006;8.424;2023-05-20T04:00:09;7.87;;;2.53;;
76063;SDS011;64762;52.006;8.424;2023-05-20T04:02:38;5.45;;;2.40;;
76063;SDS011;64762;52.006;8.424;2023-05-20T04:05:03;4.73;;;2.53;;
76063;SDS011;64762;52.006;8.424;2023-05-20T04:07:29;5.25;;;2.30;;
76063;SDS011;64762;52.006;8.424;2023-05-20T04:09:54;5.67;;;2.60;;
76063;SDS011;64762;52.006;8.424;2023-05-20T04:12:19;6.77;;;2.70;;
76063;SDS011;64762;52.006;8.424;2023-05-20T04:14:45;12.47;;;2.60;;
76063;SDS011;64762;52.006;8.424;2023-05-20T04:17:10;6.13;;;2.60;;
76063;SDS011;64762;52.006;8.424;2023-05-20T04:19:35;6.20;;;2.87;;
76063;SDS011;64762;52.006;8.424;2023-05-20T04:22:02;6.10;;;2.70;;
76063;SDS011;64762;52.006;8.424;2023-05-20T04:24:28;7.32;;;2.95;;
76063;SDS011;64762;52.006;8.424;2023-05-20T04:26:56;5.83;;;2.97;;
76063;SDS011;64762;52.006;8.424;2023-05-20T04:29:24;5.07;;;2.35;;
76063;SDS011;64762;52.006;8.424;2023-05-20T04:31:49;7.00;;;2.58;;
76063;SDS011;64762;52.006;8.424;2023-05-20T04:34:14;6.03;;;2.60;;
76063;SDS011;64762;52.006;8.424;2023-05-20T04:36:43;6.00;;;2.70;;
76063;SDS011;64762;52.006;8.424;2023-05-20T04:39:09;5.78;;;2.53;;
76063;SDS011;64762;52.006;8.424;2023-05-20T04:41:34;5.07;;;2.57;;
76063;SDS011;64762;52.006;8.424;2023-05-20T04:44:00;6.53;;;3.20;;
76063;SDS011;64762;52.006;8.424;2023-05-20T04:46:25;6.88;;;2.85;;
76063;SDS011;64762;52.006;8.424;2023-05-20T04:48:51;4.60;;;2.15;;
76063;SDS011;64762;52.006;8.424;2023-05-20T04:51:17;5.85;;;2.70;;
76063;SDS011;64762;52.006;8.424;2023-05-20T04:53:43;5.87;;;2.80;;
76063;SDS011;64762;52.006;8.424;2023-05-20T04:56:09;5.90;;;3.05;;
76063;SDS011;64762;52.006;8.424;2023-05-20T04:58:34;7.40;;;2.53;;
76063;SDS011;64762;52.006;8.424;2023-05-20T05:00:59;4.40;;;2.50;;
76063;SDS011;64762;52.006;8.424;2023-05-20T05:03:25;7.33;;;2.63;;
76063;SDS011;64762;52.006;8.424;2023-05-20T05:05:54;11.97;;;2.90;;
76063;SDS011;64762;52.006;8.424;2023-05-20T05:08:20;6.90;;;2.60;;
76063;SDS011;64762;52.006;8.424;2023-05-20T05:10:45;5.73;;;2.53;;
76063;SDS011;64762;52.006;8.424;2023-05-20T05:13:10;6.57;;;3.00;;
76063;SDS011;64762;52.006;8.424;2023-05-20T05:15:36;5.40;;;2.37;;
76063;SDS011;64762;52.006;8.424;2023-05-20T05:18:01;8.37;;;3.47;;
76063;SDS011;64762;52.006;8.424;2023-05-20T05:20:26;8.37;;;3.00;;
76063;SDS011;64762;52.006;8.424;2023-05-20T05:22:51;5.43;;;2.90;;
76063;SDS011;64762;52.006;8.424;2023-05-20T05:25:17;7.20;;;2.90;;
76063;SDS011;64762;52.006;8.424;2023-05-20T05:27:42;7.87;;;3.13;;
76063;SDS011;64762;52.006;8.424;2023-05-20T05:30:13;5.43;;;2.63;;
76063;SDS011;64762;52.006;8.424;2023-05-20T05:32:38;5.43;;;2.35;;
76063;SDS011;64762;52.006;8.424;2023-05-20T05:35:03;5.83;;;2.80;;
76063;SDS011;64762;52.006;8.424;2023-05-20T05:37:29;8.32;;;3.47;;
76063;SDS011;64762;52.006;8.424;2023-05-20T05:39:54;8.43;;;3.10;;
76063;SDS011;64762;52.006;8.424;2023-05-20T05:42:21;6.40;;;3.05;;
76063;SDS011;64762;52.006;8.424;2023-05-20T05:44:47;5.75;;;2.85;;
76063;SDS011;64762;52.006;8.424;2023-05-20T05:47:12;5.25;;;2.72;;
76063;SDS011;64762;52.006;8.424;2023-05-20T05:49:38;9.33;;;2.73;;
76063;SDS011;64762;52.006;8.424;2023-05-20T05:52:03;6.53;;;3.37;;
76063;SDS011;64762;52.006;8.424;2023-05-20T05:54:29;6.53;;;3.05;;
76063;SDS011;64762;52.006;8.424;2023-05-20T05:56:54;13.20;;;3.47;;
76063;SDS011;64762;52.006;8.424;2023-05-20T05:59:22;7.22;;;2.90;;
76063;SDS011;64762;52.006;8.424;2023-05-20T06:01:48;5.87;;;2.77;;
76063;SDS011;64762;52.006;8.424;2023-05-20T06:04:13;9.07;;;3.07;;
76063;SDS011;64762;52.006;8.424;2023-05-20T06:06:39;7.07;;;3.13;;
76063;SDS011;64762;52.006;8.424;2023-05-20T06:09:04;6.43;;;3.30;;
76063;SDS011;64762;52.006;8.424;2023-05-20T06:11:30;7.00;;;2.60;;
76063;SDS011;64762;52.006;8.424;2023-05-20T06:13:56;8.68;;;3.10;;
76063;SDS011;64762;52.006;8.424;2023-05-20T06:16:21;7.07;;;3.33;;
76063;SDS011;64762;52.006;8.424;2023-05-20T06:18:46;6.87;;;2.50;;
76063;SDS011;64762;52.006;8.424;2023-05-20T06:21:14;6.50;;;3.38;;
76063;SDS011;64762;52.006;8.424;2023-05-20T06:23:39;7.10;;;3.00;;
76063;SDS011;64762;52.006;8.424;2023-05-20T06:26:05;7.33;;;2.77;;
76063;SDS011;64762;52.006;8.424;2023-05-20T06:28:30;6.77;;;3.73;;
76063;SDS011;64762;52.006;8.424;2023-05-20T06:30:56;9.37;;;3.20;;
76063;SDS011;64762;52.006;8.424;2023-05-20T06:33:25;6.82;;;3.10;;
76063;SDS011;64762;52.006;8.424;2023-05-20T06:35:51;10.88;;;4.30;;
76063;SDS011;64762;52.006;8.424;2023-05-20T06:38:17;7.00;;;3.10;;
76063;SDS011;64762;52.006;8.424;2023-05-20T06:40:43;6.53;;;2.97;;
76063;SDS011;64762;52.006;8.424;2023-05-20T06:43:08;7.00;;;3.27;;
76063;SDS011;64762;52.006;8.424;2023-05-20T06:45:33;9.33;;;3.50;;
76063;SDS011;64762;52.006;8.424;2023-05-20T06:47:59;5.70;;;2.33;;
76063;SDS011;64762;52.006;8.424;2023-05-20T06:50:24;9.10;;;3.60;;
76063;SDS011;64762;52.006;8.424;2023-05-20T06:52:49;10.07;;;2.77;;
76063;SDS011;64762;52.006;8.424;2023-05-20T06:55:15;12.50;;;3.00;;
76063;SDS011;64762;52.006;8.424;2023-05-20T06:57:40;10.73;;;3.27;;
76063;SDS011;64762;52.006;8.424;2023-05-20T07:00:06;6.53;;;3.07;;
76063;SDS011;64762;52.006;8.424;2023-05-20T07:02:32;6.25;;;3.05;;
76063;SDS011;64762;52.006;8.424;2023-05-20T07:04:57;8.52;;;3.50;;
76063;SDS011;64762;52.006;8.424;2023-05-20T07:07:23;6.85;;;3.08;;
76063;SDS011;64762;52.006;8.424;2023-05-20T07:09:48;8.00;;;3.40;;
76063;SDS011;64762;52.006;8.424;2023-05-20T07:12:13;6.90;;;3.83;;
76063;SDS011;64762;52.006;8.424;2023-05-20T07:14:38;6.63;;;3.23;;
76063;SDS011;64762;52.006;8.424;2023-05-20T07:17:04;6.87;;;2.97;;
76063;SDS011;64762;52.006;8.424;2023-05-20T07:19:29;7.32;;;3.63;;
76063;SDS011;64762;52.006;8.424;2023-05-20T07:21:55;9.73;;;3.05;;
76063;SDS011;64762;52.006;8.424;2023-05-20T07:24:20;6.57;;;3.13;;
76063;SDS011;64762;52.006;8.424;2023-05-20T07:26:46;7.07;;;3.57;;
76063;SDS011;64762;52.006;8.424;2023-05-20T07:29:11;6.27;;;3.10;;
76063;SDS011;64762;52.006;8.424;2023-05-20T07:31:36;9.60;;;4.03;;
76063;SDS011;64762;52.006;8.424;2023-05-20T07:34:01;8.90;;;4.03;;
76063;SDS011;64762;52.006;8.424;2023-05-20T07:36:27;9.37;;;3.60;;
76063;SDS011;64762;52.006;8.424;2023-05-20T07:38:53;7.28;;;3.67;;
76063;SDS011;64762;52.006;8.424;2023-05-20T07:41:18;7.80;;;3.55;;
76063;SDS011;64762;52.006;8.424;2023-05-20T07:43:44;8.90;;;3.73;;
76063;SDS011;64762;52.006;8.424;2023-05-20T07:46:10;10.52;;;3.92;;
76063;SDS011;64762;52.006;8.424;2023-05-20T07:48:35;8.20;;;3.67;;
76063;SDS011;64762;52.006;8.424;2023-05-20T07:51:00;11.27;;;3.90;;
76063;SDS011;64762;52.006;8.424;2023-05-20T07:53:25;7.70;;;3.97;;
76063;SDS011;64762;52.006;8.424;2023-05-20T07:55:51;12.90;;;4.40;;
76063;SDS011;64762;52.006;8.424;2023-05-20T07:58:16;8.90;;;3.73;;
76063;SDS011;64762;52.006;8.424;2023-05-20T08:00:42;8.23;;;3.93;;
76063;SDS011;64762;52.006;8.424;2023-05-20T08:03:08;8.77;;;4.00;;
76063;SDS011;64762;52.006;8.424;2023-05-20T08:05:35;7.53;;;4.47;;
76063;SDS011;64762;52.006;8.424;2023-05-20T08:08:01;7.97;;;3.83;;
76063;SDS011;64762;52.006;8.424;2023-05-20T08:10:26;6.60;;;3.63;;
76063;SDS011;64762;52.006;8.424;2023-05-20T08:12:51;10.37;;;4.03;;
76063;SDS011;64762;52.006;8.424;2023-05-20T08:15:17;11.13;;;4.57;;
76063;SDS011;64762;52.006;8.424;2023-05-20T08:17:42;8.93;;;4.37;;
76063;SDS011;64762;52.006;8.424;2023-05-20T08:20:08;8.50;;;3.80;;
76063;SDS011;64762;52.006;8.424;2023-05-20T08:22:34;7.25;;;3.28;;
76063;SDS011;64762;52.006;8.424;2023-05-20T08:25:01;7.43;;;3.83;;
76063;SDS011;64762;52.006;8.424;2023-05-20T08:27:26;5.33;;;2.67;;
76063;SDS011;64762;52.006;8.424;2023-05-20T08:29:52;5.43;;;2.90;;
76063;SDS011;64762;52.006;8.424;2023-05-20T08:32:17;4.75;;;2.67;;
76063;SDS011;64762;52.006;8.424;2023-05-20T08:34:42;4.63;;;1.80;;
76063;SDS011;64762;52.006;8.424;2023-05-20T08:37:07;7.27;;;2.50;;
76063;SDS011;64762;52.006;8.424;2023-05-20T08:39:33;5.10;;;2.50;;
76063;SDS011;64762;52.006;8.424;2023-05-20T08:41:58;6.10;;;2.40;;
76063;SDS011;64762;52.006;8.424;2023-05-20T08:44:24;6.78;;;2.70;;
76063;SDS011;64762;52.006;8.424;2023-05-20T08:46:50;4.10;;;2.20;;
76063;SDS011;64762;52.006;8.424;2023-05-20T08:49:15;4.75;;;2.08;;
76063;SDS011;64762;52.006;8.424;2023-05-20T08:51:41;4.60;;;2.33;;
76063;SDS011;64762;52.006;8.424;2023-05-20T08:54:07;4.97;;;2.40;;
76063;SDS011;64762;52.006;8.424;2023-05-20T08:56:32;8.15;;;1.90;;
76063;SDS011;64762;52.006;8.424;2023-05-20T08:58:58;7.97;;;2.70;;
76063;SDS011;64762;52.006;8.424;2023-05-20T09:01:23;4.50;;;2.50;;
76063;SDS011;64762;52.006;8.424;2023-05-20T09:03:49;4.75;;;2.30;;
76063;SDS011;64762;52.006;8.424;2023-05-20T09:06:15;6.68;;;2.45;;
76063;SDS011;64762;52.006;8.424;2023-05-20T09:08:44;5.50;;;1.83;;
76063;SDS011;64762;52.006;8.424;2023-05-20T09:11:09;5.40;;;2.70;;
76063;SDS011;64762;52.006;8.424;2023-05-20T09:13:35;4.10;;;2.10;;
76063;SDS011;64762;52.006;8.424;2023-05-20T09:16:01;7.72;;;2.20;;
76063;SDS011;64762;52.006;8.424;2023-05-20T09:18:26;5.18;;;2.30;;
76063;SDS011;64762;52.006;8.424;2023-05-20T09:20:51;7.30;;;2.38;;
76063;SDS011;64762;52.006;8.424;2023-05-20T09:23:17;4.27;;;2.00;;
76063;SDS011;64762;52.006;8.424;2023-05-20T09:25:44;4.07;;;1.88;;
76063;SDS011;64762;52.006;8.424;2023-05-20T09:28:09;4.72;;;1.80;;
76063;SDS011;64762;52.006;8.424;2023-05-20T09:30:35;5.05;;;2.22;;
76063;SDS011;64762;52.006;8.424;2023-05-20T09:33:02;5.90;;;3.03;;
76063;SDS011;64762;52.006;8.424;2023-05-20T09:35:28;4.70;;;1.85;;
76063;SDS011;64762;52.006;8.424;2023-05-20T09:37:54;9.67;;;1.87;;
76063;SDS011;64762;52.006;8.424;2023-05-20T09:40:24;3.80;;;1.60;;
76063;SDS011;64762;52.006;8.424;2023-05-20T09:45:20;6.43;;;2.53;;
76063;SDS011;64762;52.006;8.424;2023-05-20T09:47:48;4.60;;;2.30;;
76063;SDS011;64762;52.006;8.424;2023-05-20T09:50:14;4.97;;;2.35;;
76063;SDS011;64762;52.006;8.424;2023-05-20T09:52:40;6.53;;;2.40;;
76063;SDS011;64762;52.006;8.424;2023-05-20T09:55:08;5.95;;;2.75;;
76063;SDS011;64762;52.006;8.424;2023-05-20T09:57:36;5.05;;;2.40;;
76063;SDS011;64762;52.006;8.424;2023-05-20T10:00:02;3.90;;;1.77;;
76063;SDS011;64762;52.006;8.424;2023-05-20T10:02:29;4.95;;;1.98;;
76063;SDS011;64762;52.006;8.424;2023-05-20T10:04:55;11.77;;;2.83;;
76063;SDS011;64762;52.006;8.424;2023-05-20T10:07:27;4.60;;;2.58;;
76063;SDS011;64762;52.006;8.424;2023-05-20T10:13:23;5.28;;;2.38;;
76063;SDS011;64762;52.006;8.424;2023-05-20T10:15:49;8.80;;;2.83;;
76063;SDS011;64762;52.006;8.424;2023-05-20T10:18:26;7.22;;;2.72;;
76063;SDS011;64762;52.006;8.424;2023-05-20T10:20:55;5.65;;;2.55;;
76063;SDS011;64762;52.006;8.424;2023-05-20T10:23:21;8.63;;;2.57;;
76063;SDS011;64762;52.006;8.424;2023-05-20T10:25:53;5.82;;;2.75;;
76063;SDS011;64762;52.006;8.424;2023-05-20T10:28:27;5.43;;;2.90;;
76063;SDS011;64762;52.006;8.424;2023-05-20T10:30:57;4.63;;;2.50;;
76063;SDS011;64762;52.006;8.424;2023-05-20T10:33:24;5.95;;;2.40;;
76063;SDS011;64762;52.006;8.424;2023-05-20T10:35:50;4.80;;;2.55;;
76063;SDS011;64762;52.006;8.424;2023-05-20T10:38:18;6.50;;;2.50;;
76063;SDS011;64762;52.006;8.424;2023-05-20T10:40:45;4.93;;;2.63;;
76063;SDS011;64762;52.006;8.424;2023-05-20T10:43:11;14.43;;;2.78;;
76063;SDS011;64762;52.006;8.424;2023-05-20T10:45:55;5.57;;;2.67;;
76063;SDS011;64762;52.006;8.424;2023-05-20T10:48:29;6.45;;;2.55;;
76063;SDS011;64762;52.006;8.424;2023-05-20T10:50:55;7.88;;;2.85;;
76063;SDS011;64762;52.006;8.424;2023-05-20T10:53:22;5.93;;;2.67;;
76063;SDS011;64762;52.006;8.424;2023-05-20T10:55:49;8.57;;;3.15;;
76063;SDS011;64762;52.006;8.424;2023-05-20T10:58:16;4.55;;;2.50;;
76063;SDS011;64762;52.006;8.424;2023-05-20T11:00:42;7.40;;;3.00;;
76063;SDS011;64762;52.006;8.424;2023-05-20T11:03:07;7.22;;;2.72;;
76063;SDS011;64762;52.006;8.424;2023-05-20T11:05:33;6.75;;;3.03;;
76063;SDS011;64762;52.006;8.424;2023-05-20T11:08:02;6.03;;;3.08;;
76063;SDS011;64762;52.006;8.424;2023-05-20T11:12:55;11.20;;;3.23;;
76063;SDS011;64762;52.006;8.424;2023-05-20T11:15:21;5.95;;;2.85;;
76063;SDS011;64762;52.006;8.424;2023-05-20T11:17:52;6.63;;;2.80;;
76063;SDS011;64762;52.006;8.424;2023-05-20T11:20:19;8.15;;;3.42;;
76063;SDS011;64762;52.006;8.424;2023-05-20T11:22:45;6.97;;;2.60;;
76063;SDS011;64762;52.006;8.424;2023-05-20T11:25:10;11.50;;;3.53;;
76063;SDS011;64762;52.006;8.424;2023-05-20T11:27:39;8.27;;;3.70;;
76063;SDS011;64762;52.006;8.424;2023-05-20T11:30:05;6.10;;;3.20;;
76063;SDS011;64762;52.006;8.424;2023-05-20T11:32:31;6.43;;;3.20;;
76063;SDS011;64762;52.006;8.424;2023-05-20T11:34:56;6.45;;;3.58;;
76063;SDS011;64762;52.006;8.424;2023-05-20T11:37:22;7.27;;;3.90;;
76063;SDS011;64762;52.006;8.424;2023-05-20T11:39:47;7.25;;;3.38;;
76063;SDS011;64762;52.006;8.424;2023-05-20T11:42:16;8.97;;;3.30;;
76063;SDS011;64762;52.006;8.424;2023-05-20T11:44:42;9.13;;;3.80;;
76063;SDS011;64762;52.006;8.424;2023-05-20T11:47:09;9.70;;;3.20;;
76063;SDS011;64762;52.006;8.424;2023-05-20T11:49:40;5.93;;;2.65;;
76063;SDS011;64762;52.006;8.424;2023-05-20T11:52:07;5.88;;;3.35;;
76063;SDS011;64762;52.006;8.424;2023-05-20T11:54:34;6.78;;;3.50;;
76063;SDS011;64762;52.006;8.424;2023-05-20T11:56:59;6.22;;;3.42;;
76063;SDS011;64762;52.006;8.424;2023-05-20T11:59:25;6.67;;;3.47;;
76063;SDS011;64762;52.006;8.424;2023-05-20T12:01:51;5.50;;;3.17;;
76063;SDS011;64762;52.006;8.424;2023-05-20T12:04:16;8.13;;;3.90;;
76063;SDS011;64762;52.006;8.424;2023-05-20T12:06:42;7.13;;;3.45;;
76063;SDS011;64762;52.006;8.424;2023-05-20T12:09:07;6.97;;;3.92;;
76063;SDS011;64762;52.006;8.424;2023-05-20T12:11:37;10.70;;;3.42;;
76063;SDS011;64762;52.006;8.424;2023-05-20T12:14:10;5.03;;;2.60;;
76063;SDS011;64762;52.006;8.424;2023-05-20T12:17:55;23.38;;;5.80;;
76063;SDS011;64762;52.006;8.424;2023-05-20T12:20:22;8.67;;;3.40;;
76063;SDS011;64762;52.006;8.424;2023-05-20T12:22:48;13.95;;;3.53;;
76063;SDS011;64762;52.006;8.424;2023-05-20T12:25:14;7.55;;;3.25;;
76063;SDS011;64762;52.006;8.424;2023-05-20T12:27:40;7.05;;;3.60;;
76063;SDS011;64762;52.006;8.424;2023-05-20T12:30:07;13.25;;;4.13;;
76063;SDS011;64762;52.006;8.424;2023-05-20T12:32:34;6.60;;;3.83;;
76063;SDS011;64762;52.006;8.424;2023-05-20T12:35:02;7.82;;;4.00;;
76063;SDS011;64762;52.006;8.424;2023-05-20T12:37:28;6.30;;;4.15;;
76063;SDS011;64762;52.006;8.424;2023-05-20T12:39:53;7.93;;;3.47;;
76063;SDS011;64762;52.006;8.424;2023-05-20T12:42:18;7.75;;;3.47;;
76063;SDS011;64762;52.006;8.424;2023-05-20T12:44:44;6.33;;;3.70;;
76063;SDS011;64762;52.006;8.424;2023-05-20T12:47:09;7.03;;;3.10;;
76063;SDS011;64762;52.006;8.424;2023-05-20T12:49:35;6.67;;;3.20;;
76063;SDS011;64762;52.006;8.424;2023-05-20T12:52:00;11.13;;;3.13;;
76063;SDS011;64762;52.006;8.424;2023-05-20T12:54:25;5.70;;;3.07;;
76063;SDS011;64762;52.006;8.424;2023-05-20T12:56:52;8.60;;;3.03;;
76063;SDS011;64762;52.006;8.424;2023-05-20T12:59:18;6.75;;;3.03;;
76063;SDS011;64762;52.006;8.424;2023-05-20T13:01:43;5.40;;;2.75;;
76063;SDS011;64762;52.006;8.424;2023-05-20T13:04:09;6.10;;;3.00;;
76063;SDS011;64762;52.006;8.424;2023-05-20T13:06:34;5.70;;;2.90;;
76063;SDS011;64762;52.006;8.424;2023-05-20T13:08:59;7.53;;;4.50;;
76063;SDS011;64762;52.006;8.424;2023-05-20T13:11:25;8.87;;;3.77;;
76063;SDS011;64762;52.006;8.424;2023-05-20T13:13:50;5.27;;;3.00;;
76063;SDS011;64762;52.006;8.424;2023-05-20T13:16:15;10.05;;;3.15;;
76063;SDS011;64762;52.006;8.424;2023-05-20T13:18:42;8.25;;;3.17;;
76063;SDS011;64762;52.006;8.424;2023-05-20T13:21:07;5.78;;;3.03;;
76063;SDS011;64762;52.006;8.424;2023-05-20T13:23:33;5.03;;;2.90;;
76063;SDS011;64762;52.006;8.424;2023-05-20T13:25:58;4.90;;;2.75;;
76063;SDS011;64762;52.006;8.424;2023-05-20T13:28:24;5.63;;;3.30;;
76063;SDS011;64762;52.006;8.424;2023-05-20T13:30:49;6.32;;;2.85;;
76063;SDS011;64762;52.006;8.424;2023-05-20T13:33:15;6.43;;;3.35;;
76063;SDS011;64762;52.006;8.424;2023-05-20T13:35:40;5.90;;;2.87;;
76063;SDS011;64762;52.006;8.424;2023-05-20T13:38:05;8.37;;;3.43;;
76063;SDS011;64762;52.006;8.424;2023-05-20T13:40:31;6.17;;;3.23;;
76063;SDS011;64762;52.006;8.424;2023-05-20T13:42:56;8.43;;;3.33;;
76063;SDS011;64762;52.006;8.424;2023-05-20T13:45:21;6.87;;;3.03;;
76063;SDS011;64762;52.006;8.424;2023-05-20T13:47:47;7.22;;;3.72;;
76063;SDS011;64762;52.006;8.424;2023-05-20T13:50:12;5.50;;;3.23;;
76063;SDS011;64762;52.006;8.424;2023-05-20T13:52:37;4.83;;;2.47;;
76063;SDS011;64762;52.006;8.424;2023-05-20T13:55:03;5.70;;;3.00;;
76063;SDS011;64762;52.006;8.424;2023-05-20T13:57:28;8.88;;;3.58;;
76063;SDS011;64762;52.006;8.424;2023-05-20T13:59:53;7.93;;;3.70;;
76063;SDS011;64762;52.006;8.424;2023-05-20T14:02:19;6.57;;;3.20;;
76063;SDS011;64762;52.006;8.424;2023-05-20T14:04:44;9.70;;;3.20;;
76063;SDS011;64762;52.006;8.424;2023-05-20T14:07:11;8.18;;;3.70;;
76063;SDS011;64762;52.006;8.424;2023-05-20T14:09:36;7.32;;;3.72;;
76063;SDS011;64762;52.006;8.424;2023-05-20T14:12:02;15.50;;;3.63;;
76063;SDS011;64762;52.006;8.424;2023-05-20T14:14:27;9.13;;;3.80;;
76063;SDS011;64762;52.006;8.424;2023-05-20T14:16:53;10.07;;;3.40;;
76063;SDS011;64762;52.006;8.424;2023-05-20T14:19:18;6.30;;;3.10;;
76063;SDS011;64762;52.006;8.424;2023-05-20T14:21:43;8.67;;;3.27;;
76063;SDS011;64762;52.006;8.424;2023-05-20T14:24:09;7.20;;;3.33;;
76063;SDS011;64762;52.006;8.424;2023-05-20T14:26:34;6.60;;;3.35;;
76063;SDS011;64762;52.006;8.424;2023-05-20T14:28:59;8.97;;;3.30;;
76063;SDS011;64762;52.006;8.424;2023-05-20T14:31:25;6.45;;;3.33;;
76063;SDS011;64762;52.006;8.424;2023-05-20T14:33:50;8.65;;;3.60;;
76063;SDS011;64762;52.006;8.424;2023-05-20T14:36:16;8.20;;;3.53;;
76063;SDS011;64762;52.006;8.424;2023-05-20T14:38:41;6.27;;;3.77;;
76063;SDS011;64762;52.006;8.424;2023-05-20T14:41:07;6.80;;;3.40;;
76063;SDS011;64762;52.006;8.424;2023-05-20T14:43:32;6.47;;;3.35;;
76063;SDS011;64762;52.006;8.424;2023-05-20T14:45:58;8.02;;;3.47;;
76063;SDS011;64762;52.006;8.424;2023-05-20T14:48:23;8.97;;;3.27;;
76063;SDS011;64762;52.006;8.424;2023-05-20T14:50:48;9.33;;;3.50;;